San Ygnacio, Texas
Current Conditions -  °F | °C
As of 2:15 PM on Sunday 25 Jan 2015 (Local Time) from KAPY Reporting Station
Clear Clear  
Wind Chill: 69°   Ceiling: Unl
Heat Index: 69°   Visibility: 10mi
Dew Point: 35°   Wind: 5mph
Humidity: 29%   Direction: 310°NW
Pressure: 30.1"   Gusts: NA
Location:  27.04°N, 99.44°W
Report Text: KAPY 252015Z AUTO 31004KT 10SM CLR 20/01 A3010 RMK AO2 T02050018
Loading
Personal Weather Stations






























Interactive Weather Map New forecast layout! Learn more

10-Day Weather Forecast

Advertisements
Track Severe Weather on mobile